Time;durP1;ratioP1;P1;durP2;ratioP2;P2;SDS_P1;SDS_P2;PMS_P1;PMS_P2;Temp;Humidity;BMP_temperature;BMP_pressure;BME280_temperature;BME280_humidity;BME280_pressure;Samples;Min_cycle;Max_cycle;Signal;HPM_P1;HPM_P2
2021/11/27 00:06:08;;;;;;;0.37;0.10;;;4.50;99.90;;;;;;6730568;88;20174;-77
2021/11/27 00:16:09;;;;;;;0.80;0.13;;;4.60;99.90;;;;;;6730723;88;20193;-77
2021/11/27 00:26:12;;;;;;;0.75;0.20;;;4.60;99.90;;;;;;6730628;88;20189;-77
2021/11/27 00:36:13;;;;;;;0.50;0.20;;;4.50;99.90;;;;;;6728635;88;22465;-77
2021/11/27 00:46:14;;;;;;;0.30;0.10;;;4.50;99.90;;;;;;6715145;88;20736;-77
2021/11/27 00:56:16;;;;;;;0.60;0.20;;;4.40;99.90;;;;;;6730189;88;20209;-77
2021/11/27 01:06:21;;;;;;;0.80;0.10;;;4.40;99.90;;;;;;6729604;88;20245;-78
2021/11/27 01:16:24;;;;;;;0.40;0.10;;;4.40;99.90;;;;;;6734627;88;20317;-77
2021/11/27 01:26:25;;;;;;;0.40;0.20;;;4.30;99.90;;;;;;6722021;88;20232;-77
2021/11/27 01:37:07;;;;;;;0.10;0.10;;;4.40;99.90;;;;;;6736329;77;20183;-79
2021/11/27 01:47:07;;;;;;;0.30;0.10;;;4.50;99.90;;;;;;6698000;88;20266;-78
2021/11/27 01:57:08;;;;;;;0.65;0.30;;;4.50;99.90;;;;;;6696862;88;20355;-79
2021/11/27 02:07:09;;;;;;;0.32;0.17;;;4.50;99.90;;;;;;6697979;88;20199;-79
2021/11/27 02:17:10;;;;;;;0.82;0.30;;;4.60;99.90;;;;;;6697512;88;20199;-78
2021/11/27 02:27:11;;;;;;;0.60;0.20;;;4.60;99.90;;;;;;6696030;88;20691;-78
2021/11/27 02:37:12;;;;;;;0.60;0.20;;;4.10;99.90;;;;;;6690900;88;20187;-78
2021/11/27 02:47:13;;;;;;;0.57;0.20;;;3.80;99.90;;;;;;6700467;88;21060;-78
2021/11/27 02:57:14;;;;;;;0.70;0.30;;;3.80;99.90;;;;;;6691376;88;20186;-78
2021/11/27 03:07:15;;;;;;;0.57;0.30;;;3.70;99.90;;;;;;6696467;88;20225;-78
2021/11/27 03:17:16;;;;;;;0.35;0.20;;;3.70;99.90;;;;;;6692345;88;20195;-78
2021/11/27 03:27:17;;;;;;;0.45;0.20;;;3.70;99.90;;;;;;6697886;88;20213;-78
2021/11/27 03:37:18;;;;;;;0.70;0.30;;;3.70;99.90;;;;;;6692060;88;20254;-79
2021/11/27 03:47:19;;;;;;;0.50;0.20;;;3.80;99.90;;;;;;6692855;89;20639;-79
2021/11/27 03:57:19;;;;;;;0.80;0.28;;;3.80;99.90;;;;;;6693033;88;20754;-78
2021/11/27 04:07:20;;;;;;;0.65;0.30;;;3.80;99.90;;;;;;6703051;88;20193;-78
2021/11/27 04:17:20;;;;;;;1.70;0.20;;;3.90;99.90;;;;;;6705144;88;20483;-78
2021/11/27 04:27:21;;;;;;;0.88;0.30;;;3.90;99.90;;;;;;6693389;89;20218;-78
2021/11/27 04:37:22;;;;;;;0.88;0.40;;;3.90;99.90;;;;;;6708862;88;20222;-78
2021/11/27 04:58:16;;;;;;;1.10;0.60;;;3.90;99.90;;;;;;6710117;88;20300;-78
2021/11/27 05:08:17;;;;;;;3.15;0.70;;;3.90;99.90;;;;;;6713090;88;20388;-78
2021/11/27 05:18:17;;;;;;;1.58;0.60;;;3.90;99.90;;;;;;6712954;88;20185;-78
2021/11/27 05:28:18;;;;;;;2.30;0.73;;;3.80;99.90;;;;;;6711493;88;20190;-79
2021/11/27 05:38:18;;;;;;;1.20;0.60;;;3.70;99.90;;;;;;6708166;88;20507;-79
2021/11/27 05:48:19;;;;;;;1.50;0.80;;;3.70;99.90;;;;;;6711895;88;20205;-79
2021/11/27 05:58:21;;;;;;;2.05;0.90;;;3.60;99.90;;;;;;6712138;88;20204;-79
2021/11/27 06:08:22;;;;;;;2.33;0.88;;;3.60;99.90;;;;;;6698390;88;20192;-79
2021/11/27 06:18:23;;;;;;;3.05;1.10;;;3.60;99.90;;;;;;6695452;88;20653;-79
2021/11/27 06:28:23;;;;;;;1.70;0.90;;;3.40;99.90;;;;;;6705802;88;20380;-79
2021/11/27 06:38:24;;;;;;;3.92;1.58;;;3.70;99.90;;;;;;6710667;88;20236;-79
2021/11/27 06:48:24;;;;;;;2.08;1.00;;;3.40;99.90;;;;;;6710280;88;20245;-79
2021/11/27 06:58:25;;;;;;;2.97;1.17;;;3.30;99.90;;;;;;6711153;88;20190;-79
2021/11/27 07:08:25;;;;;;;1.80;1.07;;;3.00;99.90;;;;;;6705847;88;20297;-79
2021/11/27 07:18:26;;;;;;;2.00;1.00;;;3.00;99.90;;;;;;6707663;88;20543;-78
2021/11/27 07:28:27;;;;;;;3.22;1.10;;;3.20;99.90;;;;;;6691840;89;20200;-80
2021/11/27 07:38:27;;;;;;;3.00;1.17;;;3.40;99.90;;;;;;6694271;78;20195;-75
2021/11/27 07:48:31;;;;;;;2.28;0.90;;;3.40;99.90;;;;;;6718970;88;20337;-75
2021/11/27 07:58:32;;;;;;;4.43;1.00;;;3.60;99.90;;;;;;6707834;88;20190;-75
2021/11/27 08:08:32;;;;;;;1.85;1.00;;;3.50;99.90;;;;;;6695512;88;20189;-76
2021/11/27 08:18:33;;;;;;;1.83;0.80;;;3.60;99.90;;;;;;6695600;88;20191;-75
2021/11/27 08:28:33;;;;;;;2.40;1.00;;;4.00;99.90;;;;;;6684524;88;20707;-74
2021/11/27 08:38:34;;;;;;;3.30;1.10;;;3.80;99.90;;;;;;6706436;88;20224;-75
2021/11/27 08:48:37;;;;;;;2.10;1.00;;;3.70;99.90;;;;;;6695237;88;20527;-77
2021/11/27 08:58:39;;;;;;;2.45;1.20;;;3.80;99.90;;;;;;6708325;88;20832;-76
2021/11/27 09:08:42;;;;;;;3.03;1.58;;;3.70;99.90;;;;;;6713781;88;20182;-77
2021/11/27 09:18:44;;;;;;;2.70;1.60;;;4.10;99.90;;;;;;6709150;88;20282;-77
2021/11/27 09:28:44;;;;;;;3.65;1.58;;;4.50;99.90;;;;;;6695687;88;20216;-76
2021/11/27 09:38:45;;;;;;;3.53;1.73;;;5.30;99.90;;;;;;6697295;88;20211;-75
2021/11/27 09:48:51;;;;;;;3.40;1.40;;;6.40;99.90;;;;;;6703222;88;20493;-77
2021/11/27 09:58:52;;;;;;;2.60;1.60;;;6.90;99.90;;;;;;6704025;88;20183;-76
2021/11/27 10:08:54;;;;;;;3.92;1.80;;;7.00;99.90;;;;;;6699259;88;20187;-74
2021/11/27 10:19:11;;;;;;;3.70;1.90;;;7.30;99.90;;;;;;6706268;88;20656;-76
2021/11/27 10:29:14;;;;;;;3.85;2.10;;;6.80;99.90;;;;;;6700092;88;20201;-76
2021/11/27 10:39:15;;;;;;;5.22;2.40;;;7.50;99.90;;;;;;6700089;88;20328;-76
2021/11/27 10:49:24;;;;;;;5.18;2.47;;;7.70;99.90;;;;;;6697481;88;20240;-76
2021/11/27 10:59:25;;;;;;;4.12;1.60;;;7.10;99.90;;;;;;6702544;88;20198;-76
2021/11/27 11:09:25;;;;;;;5.90;1.62;;;7.00;99.90;;;;;;6699399;88;20210;-76
2021/11/27 11:19:31;;;;;;;5.80;1.58;;;7.10;99.90;;;;;;6698315;88;20705;-76
2021/11/27 11:29:46;;;;;;;3.87;1.40;;;7.10;99.90;;;;;;6702958;88;20220;-76
2021/11/27 11:39:47;;;;;;;5.50;1.70;;;7.60;99.90;;;;;;6696942;88;20789;-76
2021/11/27 11:49:57;;;;;;;5.68;1.80;;;7.70;99.90;;;;;;6702660;88;20266;-77
2021/11/27 11:59:57;;;;;;;9.25;1.83;;;7.30;99.90;;;;;;6701999;88;20329;-77
2021/11/27 12:10:26;;;;;;;8.45;1.83;;;8.30;99.90;;;;;;6702797;88;20637;-76
2021/11/27 12:20:40;;;;;;;5.05;1.30;;;8.80;99.90;;;;;;6695133;88;20300;-76
2021/11/27 12:30:41;;;;;;;3.95;1.20;;;8.00;99.90;;;;;;6693690;88;20678;-75
2021/11/27 12:40:48;;;;;;;8.57;1.20;;;7.60;99.90;;;;;;6705562;88;20206;-76
2021/11/27 12:51:18;;;;;;;4.90;1.30;;;8.40;99.90;;;;;;6704395;88;20218;-76
2021/11/27 13:01:29;;;;;;;4.47;1.20;;;9.50;99.90;;;;;;6707182;88;20661;-76
2021/11/27 13:11:39;;;;;;;6.00;1.48;;;9.40;99.90;;;;;;6696034;88;20203;-77
2021/11/27 13:21:40;;;;;;;2.33;0.82;;;9.40;99.90;;;;;;6700049;88;20202;-78
2021/11/27 13:31:43;;;;;;;4.95;1.10;;;9.20;99.90;;;;;;6707062;88;20224;-78
2021/11/27 13:41:47;;;;;;;5.05;1.20;;;9.10;99.20;;;;;;6709242;88;20709;-78
2021/11/27 13:51:47;;;;;;;5.80;1.20;;;9.10;99.20;;;;;;6709680;88;20298;-78
2021/11/27 14:01:59;;;;;;;3.65;1.00;;;8.70;99.70;;;;;;6710850;88;20295;-79
2021/11/27 14:11:59;;;;;;;4.32;1.05;;;8.00;99.90;;;;;;6707402;88;20190;-78
2021/11/27 14:22:05;;;;;;;6.43;1.12;;;7.40;99.90;;;;;;6711375;88;20250;-77
2021/11/27 14:32:28;;;;;;;7.28;1.25;;;6.40;99.90;;;;;;6712108;88;20194;-78
2021/11/27 14:42:28;;;;;;;6.47;1.25;;;6.20;99.90;;;;;;6701063;88;20232;-78
2021/11/27 14:52:29;;;;;;;7.72;1.20;;;5.50;99.90;;;;;;6706053;88;20733;-78
2021/11/27 15:02:34;;;;;;;6.62;1.90;;;4.90;99.90;;;;;;6714297;88;20213;-79
2021/11/27 15:12:35;;;;;;;4.95;1.05;;;4.90;99.90;;;;;;6704996;88;20859;-78
2021/11/27 15:22:35;;;;;;;5.05;1.30;;;4.70;99.90;;;;;;6705175;88;20226;-78
2021/11/27 15:32:37;;;;;;;2.80;1.30;;;4.40;99.90;;;;;;6708473;88;20657;-78
2021/11/27 15:42:39;;;;;;;6.20;1.45;;;4.30;99.90;;;;;;6707155;88;20279;-78
2021/11/27 15:52:40;;;;;;;4.28;1.25;;;4.10;99.90;;;;;;6705643;88;20279;-79
2021/11/27 16:02:40;;;;;;;4.57;2.05;;;4.10;99.90;;;;;;6702681;88;20258;-79
2021/11/27 16:12:41;;;;;;;8.48;1.90;;;4.10;99.90;;;;;;6714073;88;20191;-76
2021/11/27 16:22:42;;;;;;;6.75;2.12;;;3.90;99.90;;;;;;6711127;88;20198;-77
2021/11/27 16:32:43;;;;;;;4.78;2.62;;;3.70;99.90;;;;;;6709629;88;20628;-76
2021/11/27 16:42:43;;;;;;;11.32;3.72;;;3.70;99.90;;;;;;6704513;88;20174;-79
2021/11/27 16:52:45;;;;;;;11.12;3.40;;;3.60;99.90;;;;;;6710606;88;20202;-77
2021/11/27 17:02:45;;;;;;;11.43;2.90;;;3.40;99.90;;;;;;6705979;88;20205;-77
2021/11/27 17:12:46;;;;;;;9.48;3.15;;;3.60;99.90;;;;;;6713637;88;20574;-76
2021/11/27 17:22:47;;;;;;;9.38;4.28;;;3.60;99.90;;;;;;6700698;88;20710;-77
2021/11/27 17:32:48;;;;;;;10.80;2.90;;;3.70;99.90;;;;;;6714483;88;20187;-77
2021/11/27 17:42:48;;;;;;;8.35;3.22;;;3.70;99.90;;;;;;6710248;88;20235;-77
2021/11/27 17:52:49;;;;;;;9.73;3.15;;;3.70;99.90;;;;;;6705043;88;20612;-77
2021/11/27 18:02:50;;;;;;;13.10;4.53;;;3.20;99.90;;;;;;6705191;88;20835;-77
2021/11/27 18:12:50;;;;;;;12.13;4.20;;;3.20;99.90;;;;;;6709019;88;20709;-77
2021/11/27 18:22:51;;;;;;;10.48;4.62;;;3.20;99.90;;;;;;6705588;88;20183;-78
2021/11/27 18:32:51;;;;;;;13.15;5.47;;;3.10;99.90;;;;;;6704615;88;20355;-77
2021/11/27 18:42:52;;;;;;;21.65;9.57;;;2.90;99.90;;;;;;6708474;88;20198;-77
2021/11/27 18:52:52;;;;;;;22.15;8.98;;;2.60;99.90;;;;;;6703063;88;20208;-78
2021/11/27 19:02:53;;;;;;;14.02;7.30;;;2.40;99.90;;;;;;6703532;88;20207;-78
2021/11/27 19:12:54;;;;;;;11.90;3.87;;;2.60;99.90;;;;;;6702169;88;20191;-77
2021/11/27 19:22:55;;;;;;;10.45;4.55;;;2.60;99.90;;;;;;6706543;88;20315;-77
2021/11/27 19:32:56;;;;;;;19.08;5.37;;;2.30;99.90;;;;;;6696040;88;20183;-78
2021/11/27 19:42:57;;;;;;;16.58;4.97;;;2.10;99.90;;;;;;6702502;89;20186;-78
2021/11/27 19:52:57;;;;;;;14.07;4.25;;;2.10;99.90;;;;;;6703689;89;20193;-78
2021/11/27 20:02:58;;;;;;;10.77;4.97;;;2.10;99.90;;;;;;6708902;88;20213;-79
2021/11/27 20:12:59;;;;;;;10.27;4.28;;;2.20;99.90;;;;;;6705680;88;20175;-78
2021/11/27 20:22:59;;;;;;;15.75;5.22;;;2.20;99.90;;;;;;6684650;89;20303;-77
2021/11/27 20:33:00;;;;;;;9.95;4.50;;;2.00;99.90;;;;;;6702008;88;20186;-78
2021/11/27 20:43:01;;;;;;;9.18;4.47;;;2.10;99.90;;;;;;6704379;88;20536;-78
2021/11/27 20:53:03;;;;;;;10.23;4.37;;;2.00;99.90;;;;;;6706682;88;20202;-78
2021/11/27 21:03:08;;;;;;;15.55;5.10;;;2.20;99.90;;;;;;6704300;88;20235;-78
2021/11/27 21:13:09;;;;;;;14.63;5.18;;;2.30;99.90;;;;;;6686795;89;20271;-78
2021/11/27 21:23:10;;;;;;;10.75;3.78;;;2.40;99.90;;;;;;6690599;89;20239;-78
2021/11/27 21:33:12;;;;;;;10.13;3.97;;;2.30;99.90;;;;;;6691706;89;20186;-78
2021/11/27 21:43:16;;;;;;;10.88;3.80;;;2.20;99.90;;;;;;6695582;88;20203;-78
2021/11/27 21:53:26;;;;;;;11.23;4.40;;;2.00;99.90;;;;;;6691630;89;20202;-79
2021/11/27 22:03:28;;;;;;;9.45;3.60;;;1.90;99.90;;;;;;6691693;89;20907;-79
2021/11/27 22:13:30;;;;;;;10.00;3.47;;;1.80;99.90;;;;;;6693747;89;20194;-79
2021/11/27 22:23:32;;;;;;;11.12;4.53;;;1.80;99.90;;;;;;6692374;89;20296;-78
2021/11/27 22:33:39;;;;;;;8.15;3.20;;;1.70;99.90;;;;;;6686691;89;20244;-79
2021/11/27 22:43:50;;;;;;;8.00;3.40;;;1.70;99.90;;;;;;6690526;89;20712;-78
2021/11/27 22:53:51;;;;;;;9.38;3.72;;;1.90;99.90;;;;;;6687297;89;20973;-78
2021/11/27 23:03:53;;;;;;;10.63;4.70;;;2.10;99.90;;;;;;6684235;89;20199;-79
2021/11/27 23:13:58;;;;;;;11.05;4.10;;;2.10;99.90;;;;;;6686116;89;20195;-78
2021/11/27 23:24:02;;;;;;;9.90;3.70;;;2.40;99.90;;;;;;6689453;89;20286;-78
2021/11/27 23:34:08;;;;;;;9.02;2.70;;;2.50;99.90;;;;;;6689898;88;20215;-78
2021/11/27 23:44:16;;;;;;;10.90;3.55;;;2.50;99.90;;;;;;6686521;88;20248;-78
2021/11/27 23:54:17;;;;;;;10.07;4.32;;;2.40;99.90;;;;;;6694793;89;20748;-79
